sensor_id;sensor_type;location;lat;lon;timestamp;P1;durP1;ratioP1;P2;durP2;ratioP2
47113;SDS011;32867;51.556;6.832;2023-04-08T00:04:44;8.25;;;7.28;;
47113;SDS011;32867;51.556;6.832;2023-04-08T00:09:45;9.65;;;8.65;;
47113;SDS011;32867;51.556;6.832;2023-04-08T00:14:46;9.25;;;8.25;;
47113;SDS011;32867;51.556;6.832;2023-04-08T00:19:47;10.63;;;9.02;;
47113;SDS011;32867;51.556;6.832;2023-04-08T00:24:48;10.10;;;8.88;;
47113;SDS011;32867;51.556;6.832;2023-04-08T00:29:49;10.57;;;9.00;;
47113;SDS011;32867;51.556;6.832;2023-04-08T00:34:50;10.88;;;9.75;;
47113;SDS011;32867;51.556;6.832;2023-04-08T00:39:51;10.30;;;9.20;;
47113;SDS011;32867;51.556;6.832;2023-04-08T00:44:53;8.98;;;8.07;;
47113;SDS011;32867;51.556;6.832;2023-04-08T00:49:53;11.57;;;10.38;;
47113;SDS011;32867;51.556;6.832;2023-04-08T00:54:54;10.65;;;9.55;;
47113;SDS011;32867;51.556;6.832;2023-04-08T00:59:55;10.60;;;9.32;;
47113;SDS011;32867;51.556;6.832;2023-04-08T01:05:01;8.75;;;7.85;;
47113;SDS011;32867;51.556;6.832;2023-04-08T01:10:14;11.65;;;9.43;;
47113;SDS011;32867;51.556;6.832;2023-04-08T01:15:17;9.68;;;8.68;;
47113;SDS011;32867;51.556;6.832;2023-04-08T01:20:18;10.00;;;8.90;;
47113;SDS011;32867;51.556;6.832;2023-04-08T01:25:25;9.20;;;8.00;;
47113;SDS011;32867;51.556;6.832;2023-04-08T01:30:30;8.43;;;7.57;;
47113;SDS011;32867;51.556;6.832;2023-04-08T01:35:32;8.95;;;8.05;;
47113;SDS011;32867;51.556;6.832;2023-04-08T01:40:34;9.93;;;8.93;;
47113;SDS011;32867;51.556;6.832;2023-04-08T01:45:38;8.48;;;7.38;;
47113;SDS011;32867;51.556;6.832;2023-04-08T01:50:39;11.45;;;10.25;;
47113;SDS011;32867;51.556;6.832;2023-04-08T01:55:42;11.35;;;10.15;;
47113;SDS011;32867;51.556;6.832;2023-04-08T02:00:46;11.38;;;9.57;;
47113;SDS011;32867;51.556;6.832;2023-04-08T02:05:48;10.75;;;9.65;;
47113;SDS011;32867;51.556;6.832;2023-04-08T02:10:49;10.23;;;9.05;;
47113;SDS011;32867;51.556;6.832;2023-04-08T02:15:51;12.30;;;10.25;;
47113;SDS011;32867;51.556;6.832;2023-04-08T02:21:01;12.85;;;10.50;;
47113;SDS011;32867;51.556;6.832;2023-04-08T02:26:15;10.32;;;9.25;;
47113;SDS011;32867;51.556;6.832;2023-04-08T02:31:18;13.10;;;11.73;;
47113;SDS011;32867;51.556;6.832;2023-04-08T02:36:19;11.77;;;10.57;;
47113;SDS011;32867;51.556;6.832;2023-04-08T02:41:21;12.90;;;11.43;;
47113;SDS011;32867;51.556;6.832;2023-04-08T02:46:22;11.35;;;9.88;;
47113;SDS011;32867;51.556;6.832;2023-04-08T02:51:23;10.70;;;9.38;;
47113;SDS011;32867;51.556;6.832;2023-04-08T02:56:23;9.85;;;8.85;;
47113;SDS011;32867;51.556;6.832;2023-04-08T03:01:24;10.32;;;9.25;;
47113;SDS011;32867;51.556;6.832;2023-04-08T03:06:25;11.65;;;10.45;;
47113;SDS011;32867;51.556;6.832;2023-04-08T03:11:26;12.25;;;10.40;;
47113;SDS011;32867;51.556;6.832;2023-04-08T03:16:26;11.27;;;10.10;;
47113;SDS011;32867;51.556;6.832;2023-04-08T03:21:27;11.98;;;10.68;;
47113;SDS011;32867;51.556;6.832;2023-04-08T03:26:30;10.52;;;9.43;;
47113;SDS011;32867;51.556;6.832;2023-04-08T03:31:31;9.27;;;7.20;;
47113;SDS011;32867;51.556;6.832;2023-04-08T03:36:32;9.82;;;8.70;;
47113;SDS011;32867;51.556;6.832;2023-04-08T03:41:33;9.57;;;8.43;;
47113;SDS011;32867;51.556;6.832;2023-04-08T03:46:33;13.00;;;8.55;;
47113;SDS011;32867;51.556;6.832;2023-04-08T03:51:34;12.55;;;7.90;;
47113;SDS011;32867;51.556;6.832;2023-04-08T03:56:35;8.95;;;8.05;;
47113;SDS011;32867;51.556;6.832;2023-04-08T04:01:35;8.50;;;7.60;;
47113;SDS011;32867;51.556;6.832;2023-04-08T04:06:36;9.50;;;8.50;;
47113;SDS011;32867;51.556;6.832;2023-04-08T04:11:37;8.80;;;7.60;;
47113;SDS011;32867;51.556;6.832;2023-04-08T04:16:37;9.48;;;8.27;;
47113;SDS011;32867;51.556;6.832;2023-04-08T04:21:38;9.02;;;7.88;;
47113;SDS011;32867;51.556;6.832;2023-04-08T04:26:40;11.00;;;9.10;;
47113;SDS011;32867;51.556;6.832;2023-04-08T04:31:41;9.15;;;8.15;;
47113;SDS011;32867;51.556;6.832;2023-04-08T04:36:42;8.05;;;7.25;;
47113;SDS011;32867;51.556;6.832;2023-04-08T04:41:43;9.02;;;7.60;;
47113;SDS011;32867;51.556;6.832;2023-04-08T04:46:43;9.13;;;7.35;;
47113;SDS011;32867;51.556;6.832;2023-04-08T04:51:44;8.77;;;7.80;;
47113;SDS011;32867;51.556;6.832;2023-04-08T04:56:45;9.93;;;8.77;;
47113;SDS011;32867;51.556;6.832;2023-04-08T05:01:46;7.75;;;6.95;;
47113;SDS011;32867;51.556;6.832;2023-04-08T05:06:46;7.35;;;6.35;;
47113;SDS011;32867;51.556;6.832;2023-04-08T05:11:47;7.57;;;6.78;;
47113;SDS011;32867;51.556;6.832;2023-04-08T05:16:47;7.78;;;6.97;;
47113;SDS011;32867;51.556;6.832;2023-04-08T05:21:48;7.93;;;7.13;;
47113;SDS011;32867;51.556;6.832;2023-04-08T05:26:49;8.35;;;7.35;;
47113;SDS011;32867;51.556;6.832;2023-04-08T05:31:52;9.15;;;7.72;;
47113;SDS011;32867;51.556;6.832;2023-04-08T05:36:53;11.10;;;7.97;;
47113;SDS011;32867;51.556;6.832;2023-04-08T05:41:53;10.88;;;7.95;;
47113;SDS011;32867;51.556;6.832;2023-04-08T05:46:54;12.63;;;7.25;;
47113;SDS011;32867;51.556;6.832;2023-04-08T05:51:56;11.68;;;7.40;;
47113;SDS011;32867;51.556;6.832;2023-04-08T05:56:57;9.77;;;7.82;;
47113;SDS011;32867;51.556;6.832;2023-04-08T06:01:58;10.95;;;8.23;;
47113;SDS011;32867;51.556;6.832;2023-04-08T06:06:58;11.68;;;8.38;;
47113;SDS011;32867;51.556;6.832;2023-04-08T06:12:01;13.63;;;8.68;;
47113;SDS011;32867;51.556;6.832;2023-04-08T06:17:03;45.55;;;10.93;;
47113;SDS011;32867;51.556;6.832;2023-04-08T06:22:03;30.98;;;9.32;;
47113;SDS011;32867;51.556;6.832;2023-04-08T06:27:04;24.73;;;8.05;;
47113;SDS011;32867;51.556;6.832;2023-04-08T06:32:05;24.67;;;9.15;;
47113;SDS011;32867;51.556;6.832;2023-04-08T06:37:06;13.75;;;7.38;;
47113;SDS011;32867;51.556;6.832;2023-04-08T06:42:07;8.70;;;6.93;;
47113;SDS011;32867;51.556;6.832;2023-04-08T06:47:28;10.43;;;7.32;;
47113;SDS011;32867;51.556;6.832;2023-04-08T06:52:28;7.60;;;6.30;;
47113;SDS011;32867;51.556;6.832;2023-04-08T06:57:29;7.40;;;6.45;;
47113;SDS011;32867;51.556;6.832;2023-04-08T07:02:30;7.57;;;6.47;;
47113;SDS011;32867;51.556;6.832;2023-04-08T07:07:31;7.40;;;6.60;;
47113;SDS011;32867;51.556;6.832;2023-04-08T07:12:31;7.38;;;6.25;;
47113;SDS011;32867;51.556;6.832;2023-04-08T07:17:32;8.27;;;7.25;;
47113;SDS011;32867;51.556;6.832;2023-04-08T07:22:33;8.07;;;7.15;;
47113;SDS011;32867;51.556;6.832;2023-04-08T07:27:33;9.30;;;7.95;;
47113;SDS011;32867;51.556;6.832;2023-04-08T07:32:34;8.85;;;7.43;;
47113;SDS011;32867;51.556;6.832;2023-04-08T07:37:35;8.40;;;7.45;;
47113;SDS011;32867;51.556;6.832;2023-04-08T07:42:36;11.48;;;8.98;;
47113;SDS011;32867;51.556;6.832;2023-04-08T07:47:37;9.15;;;8.20;;
47113;SDS011;32867;51.556;6.832;2023-04-08T07:52:37;9.98;;;8.73;;
47113;SDS011;32867;51.556;6.832;2023-04-08T07:57:38;11.30;;;10.10;;
47113;SDS011;32867;51.556;6.832;2023-04-08T08:02:39;10.35;;;8.52;;
47113;SDS011;32867;51.556;6.832;2023-04-08T08:07:40;12.25;;;9.80;;
47113;SDS011;32867;51.556;6.832;2023-04-08T08:12:41;11.23;;;10.00;;
47113;SDS011;32867;51.556;6.832;2023-04-08T08:17:42;10.23;;;9.05;;
47113;SDS011;32867;51.556;6.832;2023-04-08T08:22:43;12.13;;;10.20;;
47113;SDS011;32867;51.556;6.832;2023-04-08T08:27:44;11.35;;;9.32;;
47113;SDS011;32867;51.556;6.832;2023-04-08T08:32:45;10.25;;;9.02;;
47113;SDS011;32867;51.556;6.832;2023-04-08T08:37:46;9.32;;;8.23;;
47113;SDS011;32867;51.556;6.832;2023-04-08T08:42:50;9.57;;;8.35;;
47113;SDS011;32867;51.556;6.832;2023-04-08T08:47:51;9.48;;;7.97;;
47113;SDS011;32867;51.556;6.832;2023-04-08T08:52:52;11.02;;;9.70;;
47113;SDS011;32867;51.556;6.832;2023-04-08T08:57:52;10.15;;;8.52;;
47113;SDS011;32867;51.556;6.832;2023-04-08T09:02:53;9.63;;;8.18;;
47113;SDS011;32867;51.556;6.832;2023-04-08T09:07:54;11.07;;;8.63;;
47113;SDS011;32867;51.556;6.832;2023-04-08T09:12:54;10.77;;;9.18;;
47113;SDS011;32867;51.556;6.832;2023-04-08T09:17:55;9.57;;;8.50;;
47113;SDS011;32867;51.556;6.832;2023-04-08T09:23:00;9.82;;;8.00;;
47113;SDS011;32867;51.556;6.832;2023-04-08T09:28:01;8.60;;;6.75;;
47113;SDS011;32867;51.556;6.832;2023-04-08T09:33:02;8.38;;;6.60;;
47113;SDS011;32867;51.556;6.832;2023-04-08T09:38:06;8.38;;;6.80;;
47113;SDS011;32867;51.556;6.832;2023-04-08T09:43:06;8.32;;;6.80;;
47113;SDS011;32867;51.556;6.832;2023-04-08T09:48:11;7.45;;;6.43;;
47113;SDS011;32867;51.556;6.832;2023-04-08T09:53:22;6.85;;;6.15;;
47113;SDS011;32867;51.556;6.832;2023-04-08T10:03:57;7.90;;;5.50;;
47113;SDS011;32867;51.556;6.832;2023-04-08T10:09:00;8.02;;;5.90;;
47113;SDS011;32867;51.556;6.832;2023-04-08T10:14:01;6.90;;;6.20;;
47113;SDS011;32867;51.556;6.832;2023-04-08T10:19:03;5.90;;;4.90;;
47113;SDS011;32867;51.556;6.832;2023-04-08T10:24:54;7.75;;;6.00;;
47113;SDS011;32867;51.556;6.832;2023-04-08T10:35:31;6.82;;;5.13;;
47113;SDS011;32867;51.556;6.832;2023-04-08T10:40:34;7.97;;;5.57;;
47113;SDS011;32867;51.556;6.832;2023-04-08T10:45:40;5.80;;;4.20;;
47113;SDS011;32867;51.556;6.832;2023-04-08T10:50:52;7.05;;;4.90;;
47113;SDS011;32867;51.556;6.832;2023-04-08T10:56:08;6.07;;;4.97;;
47113;SDS011;32867;51.556;6.832;2023-04-08T11:01:14;6.95;;;5.10;;
47113;SDS011;32867;51.556;6.832;2023-04-08T11:06:15;6.72;;;5.35;;
47113;SDS011;32867;51.556;6.832;2023-04-08T11:11:17;7.22;;;4.90;;
47113;SDS011;32867;51.556;6.832;2023-04-08T11:16:19;6.82;;;4.30;;
47113;SDS011;32867;51.556;6.832;2023-04-08T11:21:24;4.85;;;3.53;;
47113;SDS011;32867;51.556;6.832;2023-04-08T11:26:28;5.07;;;4.07;;
47113;SDS011;32867;51.556;6.832;2023-04-08T11:31:29;5.88;;;4.63;;
47113;SDS011;32867;51.556;6.832;2023-04-08T11:36:31;6.63;;;4.82;;
47113;SDS011;32867;51.556;6.832;2023-04-08T11:41:37;5.75;;;4.47;;
47113;SDS011;32867;51.556;6.832;2023-04-08T11:46:39;5.57;;;4.50;;
47113;SDS011;32867;51.556;6.832;2023-04-08T11:51:58;7.18;;;5.10;;
47113;SDS011;32867;51.556;6.832;2023-04-08T11:56:59;5.53;;;4.55;;
47113;SDS011;32867;51.556;6.832;2023-04-08T12:02:00;6.15;;;4.97;;
47113;SDS011;32867;51.556;6.832;2023-04-08T12:07:01;7.05;;;4.63;;
47113;SDS011;32867;51.556;6.832;2023-04-08T12:12:01;6.18;;;4.22;;
47113;SDS011;32867;51.556;6.832;2023-04-08T12:17:02;6.53;;;4.70;;
47113;SDS011;32867;51.556;6.832;2023-04-08T12:22:03;5.82;;;4.20;;
47113;SDS011;32867;51.556;6.832;2023-04-08T12:27:04;6.15;;;4.55;;
47113;SDS011;32867;51.556;6.832;2023-04-08T12:32:04;5.03;;;4.10;;
47113;SDS011;32867;51.556;6.832;2023-04-08T12:37:05;5.22;;;4.22;;
47113;SDS011;32867;51.556;6.832;2023-04-08T12:42:06;6.13;;;4.45;;
47113;SDS011;32867;51.556;6.832;2023-04-08T12:47:07;4.53;;;3.65;;
47113;SDS011;32867;51.556;6.832;2023-04-08T12:52:07;4.60;;;3.60;;
47113;SDS011;32867;51.556;6.832;2023-04-08T12:57:08;6.63;;;4.57;;
47113;SDS011;32867;51.556;6.832;2023-04-08T13:02:09;5.93;;;4.15;;
47113;SDS011;32867;51.556;6.832;2023-04-08T13:07:09;5.78;;;3.83;;
47113;SDS011;32867;51.556;6.832;2023-04-08T13:12:10;4.88;;;3.78;;
47113;SDS011;32867;51.556;6.832;2023-04-08T13:17:11;12.50;;;5.13;;
47113;SDS011;32867;51.556;6.832;2023-04-08T13:22:12;5.38;;;4.10;;
47113;SDS011;32867;51.556;6.832;2023-04-08T13:27:15;5.88;;;4.43;;
47113;SDS011;32867;51.556;6.832;2023-04-08T13:32:16;5.68;;;4.43;;
47113;SDS011;32867;51.556;6.832;2023-04-08T13:37:17;6.65;;;4.55;;
47113;SDS011;32867;51.556;6.832;2023-04-08T13:42:17;6.90;;;5.45;;
47113;SDS011;32867;51.556;6.832;2023-04-08T13:47:18;5.60;;;4.22;;
47113;SDS011;32867;51.556;6.832;2023-04-08T13:52:19;6.43;;;4.45;;
47113;SDS011;32867;51.556;6.832;2023-04-08T13:57:19;5.10;;;3.88;;
47113;SDS011;32867;51.556;6.832;2023-04-08T14:02:20;6.53;;;4.50;;
47113;SDS011;32867;51.556;6.832;2023-04-08T14:07:22;6.03;;;4.63;;
47113;SDS011;32867;51.556;6.832;2023-04-08T14:12:22;5.82;;;4.80;;
47113;SDS011;32867;51.556;6.832;2023-04-08T14:17:23;5.32;;;4.50;;
47113;SDS011;32867;51.556;6.832;2023-04-08T14:22:24;5.05;;;4.18;;
47113;SDS011;32867;51.556;6.832;2023-04-08T14:27:25;5.65;;;4.68;;
47113;SDS011;32867;51.556;6.832;2023-04-08T14:32:26;6.40;;;5.28;;
47113;SDS011;32867;51.556;6.832;2023-04-08T14:37:27;9.07;;;6.03;;
47113;SDS011;32867;51.556;6.832;2023-04-08T14:42:28;7.05;;;6.03;;
47113;SDS011;32867;51.556;6.832;2023-04-08T14:47:29;6.60;;;5.32;;
47113;SDS011;32867;51.556;6.832;2023-04-08T14:52:30;6.85;;;5.88;;
47113;SDS011;32867;51.556;6.832;2023-04-08T14:57:30;6.82;;;5.72;;
47113;SDS011;32867;51.556;6.832;2023-04-08T15:02:31;8.18;;;5.85;;
47113;SDS011;32867;51.556;6.832;2023-04-08T15:07:32;21.08;;;8.45;;
47113;SDS011;32867;51.556;6.832;2023-04-08T15:12:33;8.95;;;6.22;;
47113;SDS011;32867;51.556;6.832;2023-04-08T15:17:34;10.73;;;7.18;;
47113;SDS011;32867;51.556;6.832;2023-04-08T15:22:34;8.18;;;6.38;;
47113;SDS011;32867;51.556;6.832;2023-04-08T15:27:35;17.17;;;8.07;;
47113;SDS011;32867;51.556;6.832;2023-04-08T15:32:36;10.95;;;7.90;;
47113;SDS011;32867;51.556;6.832;2023-04-08T15:37:37;11.48;;;8.05;;
47113;SDS011;32867;51.556;6.832;2023-04-08T15:42:37;12.93;;;8.35;;
47113;SDS011;32867;51.556;6.832;2023-04-08T15:47:38;12.07;;;8.82;;
47113;SDS011;32867;51.556;6.832;2023-04-08T15:52:39;9.75;;;8.25;;
47113;SDS011;32867;51.556;6.832;2023-04-08T15:57:40;11.02;;;8.43;;
47113;SDS011;32867;51.556;6.832;2023-04-08T16:02:41;11.38;;;8.68;;
47113;SDS011;32867;51.556;6.832;2023-04-08T16:07:42;11.82;;;9.60;;
47113;SDS011;32867;51.556;6.832;2023-04-08T16:12:42;11.65;;;10.40;;
47113;SDS011;32867;51.556;6.832;2023-04-08T16:17:48;11.90;;;8.93;;
47113;SDS011;32867;51.556;6.832;2023-04-08T16:22:51;11.88;;;9.60;;
47113;SDS011;32867;51.556;6.832;2023-04-08T16:27:52;14.38;;;8.55;;
47113;SDS011;32867;51.556;6.832;2023-04-08T16:32:53;15.18;;;9.75;;
47113;SDS011;32867;51.556;6.832;2023-04-08T16:37:54;10.63;;;8.88;;
47113;SDS011;32867;51.556;6.832;2023-04-08T16:42:54;14.90;;;10.95;;
47113;SDS011;32867;51.556;6.832;2023-04-08T16:47:55;15.40;;;12.80;;
47113;SDS011;32867;51.556;6.832;2023-04-08T16:52:56;14.88;;;11.45;;
47113;SDS011;32867;51.556;6.832;2023-04-08T16:57:57;16.30;;;10.75;;
47113;SDS011;32867;51.556;6.832;2023-04-08T17:02:57;18.80;;;12.70;;
47113;SDS011;32867;51.556;6.832;2023-04-08T17:07:59;14.40;;;11.02;;
47113;SDS011;32867;51.556;6.832;2023-04-08T17:13:00;11.38;;;9.13;;
47113;SDS011;32867;51.556;6.832;2023-04-08T17:18:04;8.45;;;6.70;;
47113;SDS011;32867;51.556;6.832;2023-04-08T17:23:05;9.93;;;7.85;;
47113;SDS011;32867;51.556;6.832;2023-04-08T17:28:06;10.88;;;8.43;;
47113;SDS011;32867;51.556;6.832;2023-04-08T17:33:07;10.23;;;8.45;;
47113;SDS011;32867;51.556;6.832;2023-04-08T17:38:08;9.88;;;7.95;;
47113;SDS011;32867;51.556;6.832;2023-04-08T17:43:08;10.02;;;8.25;;
47113;SDS011;32867;51.556;6.832;2023-04-08T17:48:09;10.55;;;8.57;;
47113;SDS011;32867;51.556;6.832;2023-04-08T17:53:10;10.57;;;8.70;;
47113;SDS011;32867;51.556;6.832;2023-04-08T17:58:11;8.35;;;6.45;;
47113;SDS011;32867;51.556;6.832;2023-04-08T18:03:12;10.32;;;8.50;;
47113;SDS011;32867;51.556;6.832;2023-04-08T18:08:12;9.75;;;7.60;;
47113;SDS011;32867;51.556;6.832;2023-04-08T18:13:13;10.63;;;8.30;;
47113;SDS011;32867;51.556;6.832;2023-04-08T18:18:14;9.45;;;7.97;;
47113;SDS011;32867;51.556;6.832;2023-04-08T18:23:18;12.02;;;8.73;;
47113;SDS011;32867;51.556;6.832;2023-04-08T18:28:19;10.57;;;8.68;;
47113;SDS011;32867;51.556;6.832;2023-04-08T18:33:21;11.73;;;8.85;;
47113;SDS011;32867;51.556;6.832;2023-04-08T18:38:22;10.88;;;8.80;;
47113;SDS011;32867;51.556;6.832;2023-04-08T18:43:22;12.57;;;10.02;;
47113;SDS011;32867;51.556;6.832;2023-04-08T18:48:23;15.13;;;11.88;;
47113;SDS011;32867;51.556;6.832;2023-04-08T18:53:24;14.15;;;10.85;;
47113;SDS011;32867;51.556;6.832;2023-04-08T18:58:25;15.48;;;11.30;;
47113;SDS011;32867;51.556;6.832;2023-04-08T19:03:26;16.92;;;12.98;;
47113;SDS011;32867;51.556;6.832;2023-04-08T19:08:27;16.25;;;12.80;;
47113;SDS011;32867;51.556;6.832;2023-04-08T19:13:28;17.33;;;13.65;;
47113;SDS011;32867;51.556;6.832;2023-04-08T19:18:29;16.27;;;13.27;;
47113;SDS011;32867;51.556;6.832;2023-04-08T19:23:30;15.23;;;12.18;;
47113;SDS011;32867;51.556;6.832;2023-04-08T19:28:31;17.05;;;12.15;;
47113;SDS011;32867;51.556;6.832;2023-04-08T19:33:32;16.17;;;12.55;;
47113;SDS011;32867;51.556;6.832;2023-04-08T19:38:33;16.77;;;13.57;;
47113;SDS011;32867;51.556;6.832;2023-04-08T19:43:33;18.15;;;14.45;;
47113;SDS011;32867;51.556;6.832;2023-04-08T19:48:34;20.88;;;16.00;;
47113;SDS011;32867;51.556;6.832;2023-04-08T19:53:35;20.83;;;16.25;;
47113;SDS011;32867;51.556;6.832;2023-04-08T19:58:36;22.42;;;17.40;;
47113;SDS011;32867;51.556;6.832;2023-04-08T20:03:36;23.00;;;16.55;;
47113;SDS011;32867;51.556;6.832;2023-04-08T20:08:37;27.02;;;19.02;;
47113;SDS011;32867;51.556;6.832;2023-04-08T20:13:38;21.75;;;17.00;;
47113;SDS011;32867;51.556;6.832;2023-04-08T20:18:39;23.80;;;16.80;;
47113;SDS011;32867;51.556;6.832;2023-04-08T20:23:40;22.55;;;17.13;;
47113;SDS011;32867;51.556;6.832;2023-04-08T20:28:43;23.45;;;17.83;;
47113;SDS011;32867;51.556;6.832;2023-04-08T20:33:45;27.58;;;21.40;;
47113;SDS011;32867;51.556;6.832;2023-04-08T20:38:45;25.73;;;19.55;;
47113;SDS011;32867;51.556;6.832;2023-04-08T20:43:46;26.40;;;19.98;;
47113;SDS011;32867;51.556;6.832;2023-04-08T20:48:49;30.30;;;24.50;;
47113;SDS011;32867;51.556;6.832;2023-04-08T20:53:50;34.13;;;25.27;;
47113;SDS011;32867;51.556;6.832;2023-04-08T20:58:50;26.30;;;20.10;;
47113;SDS011;32867;51.556;6.832;2023-04-08T21:03:51;29.50;;;22.92;;
47113;SDS011;32867;51.556;6.832;2023-04-08T21:08:52;28.88;;;22.25;;
47113;SDS011;32867;51.556;6.832;2023-04-08T21:13:52;28.60;;;20.58;;
47113;SDS011;32867;51.556;6.832;2023-04-08T21:18:53;34.20;;;25.13;;
47113;SDS011;32867;51.556;6.832;2023-04-08T21:23:56;39.03;;;24.88;;
47113;SDS011;32867;51.556;6.832;2023-04-08T21:28:57;34.17;;;25.20;;
47113;SDS011;32867;51.556;6.832;2023-04-08T21:33:58;35.90;;;25.77;;
47113;SDS011;32867;51.556;6.832;2023-04-08T21:38:58;36.88;;;26.73;;
47113;SDS011;32867;51.556;6.832;2023-04-08T21:43:59;41.42;;;28.58;;
47113;SDS011;32867;51.556;6.832;2023-04-08T21:49:00;36.22;;;26.05;;
47113;SDS011;32867;51.556;6.832;2023-04-08T21:54:01;36.90;;;26.00;;
47113;SDS011;32867;51.556;6.832;2023-04-08T21:59:02;32.15;;;22.33;;
47113;SDS011;32867;51.556;6.832;2023-04-08T22:04:03;34.40;;;24.80;;
47113;SDS011;32867;51.556;6.832;2023-04-08T22:09:04;32.15;;;22.73;;
47113;SDS011;32867;51.556;6.832;2023-04-08T22:14:04;32.45;;;24.63;;
47113;SDS011;32867;51.556;6.832;2023-04-08T22:19:05;31.13;;;22.27;;
47113;SDS011;32867;51.556;6.832;2023-04-08T22:24:06;31.20;;;22.70;;
47113;SDS011;32867;51.556;6.832;2023-04-08T22:29:06;37.22;;;27.42;;
47113;SDS011;32867;51.556;6.832;2023-04-08T22:34:07;34.67;;;25.42;;
47113;SDS011;32867;51.556;6.832;2023-04-08T22:39:08;36.35;;;26.63;;
47113;SDS011;32867;51.556;6.832;2023-04-08T22:44:08;32.08;;;23.30;;
47113;SDS011;32867;51.556;6.832;2023-04-08T22:49:09;28.10;;;20.73;;
47113;SDS011;32867;51.556;6.832;2023-04-08T22:54:09;29.45;;;21.63;;
47113;SDS011;32867;51.556;6.832;2023-04-08T22:59:10;28.83;;;22.05;;
47113;SDS011;32867;51.556;6.832;2023-04-08T23:04:11;28.67;;;21.55;;
47113;SDS011;32867;51.556;6.832;2023-04-08T23:09:11;29.45;;;20.98;;
47113;SDS011;32867;51.556;6.832;2023-04-08T23:14:12;29.25;;;20.25;;
47113;SDS011;32867;51.556;6.832;2023-04-08T23:19:13;28.60;;;21.67;;
47113;SDS011;32867;51.556;6.832;2023-04-08T23:24:14;29.35;;;21.08;;
47113;SDS011;32867;51.556;6.832;2023-04-08T23:29:15;29.15;;;20.20;;
47113;SDS011;32867;51.556;6.832;2023-04-08T23:34:15;25.98;;;18.15;;
47113;SDS011;32867;51.556;6.832;2023-04-08T23:39:16;25.92;;;18.20;;
47113;SDS011;32867;51.556;6.832;2023-04-08T23:44:17;26.73;;;19.70;;
47113;SDS011;32867;51.556;6.832;2023-04-08T23:49:18;27.58;;;20.05;;
47113;SDS011;32867;51.556;6.832;2023-04-08T23:54:18;28.27;;;19.27;;
47113;SDS011;32867;51.556;6.832;2023-04-08T23:59:19;24.17;;;17.15;;
